sensor_id;sensor_type;location;lat;lon;timestamp;temperature;humidity
64226;DHT22;50545;56.064;26.178;2023-03-13T00:03:41;-4.40;99.90
64226;DHT22;50545;56.064;26.178;2023-03-13T00:06:08;-4.40;99.90
64226;DHT22;50545;56.064;26.178;2023-03-13T00:08:36;-4.40;99.90
64226;DHT22;50545;56.064;26.178;2023-03-13T00:11:05;-4.40;99.90
64226;DHT22;50545;56.064;26.178;2023-03-13T00:13:32;-4.50;99.90
64226;DHT22;50545;56.064;26.178;2023-03-13T00:16:05;-4.50;99.90
64226;DHT22;50545;56.064;26.178;2023-03-13T00:18:33;-4.50;99.90
64226;DHT22;50545;56.064;26.178;2023-03-13T00:21:07;-4.50;99.90
64226;DHT22;50545;56.064;26.178;2023-03-13T00:23:36;-4.50;99.90
64226;DHT22;50545;56.064;26.178;2023-03-13T00:26:09;-4.50;99.90
64226;DHT22;50545;56.064;26.178;2023-03-13T00:28:38;-4.50;99.90
64226;DHT22;50545;56.064;26.178;2023-03-13T00:33:41;-4.50;99.90
64226;DHT22;50545;56.064;26.178;2023-03-13T00:36:12;-4.60;99.90
64226;DHT22;50545;56.064;26.178;2023-03-13T00:38:39;-4.50;99.90
64226;DHT22;50545;56.064;26.178;2023-03-13T00:41:09;-4.60;99.90
64226;DHT22;50545;56.064;26.178;2023-03-13T00:43:41;-4.60;99.90
64226;DHT22;50545;56.064;26.178;2023-03-13T00:46:10;-4.60;99.90
64226;DHT22;50545;56.064;26.178;2023-03-13T00:48:37;-4.70;99.90
64226;DHT22;50545;56.064;26.178;2023-03-13T00:51:05;-4.70;99.90
64226;DHT22;50545;56.064;26.178;2023-03-13T00:53:32;-4.70;99.90
64226;DHT22;50545;56.064;26.178;2023-03-13T00:56:05;-4.70;99.90
64226;DHT22;50545;56.064;26.178;2023-03-13T00:58:34;-4.80;99.90
64226;DHT22;50545;56.064;26.178;2023-03-13T01:01:26;-4.80;99.90
64226;DHT22;50545;56.064;26.178;2023-03-13T01:03:59;-4.80;99.90
64226;DHT22;50545;56.064;26.178;2023-03-13T01:06:29;-4.80;99.90
64226;DHT22;50545;56.064;26.178;2023-03-13T01:08:56;-4.90;99.90
64226;DHT22;50545;56.064;26.178;2023-03-13T01:11:27;-4.90;99.90
64226;DHT22;50545;56.064;26.178;2023-03-13T01:13:57;-4.90;99.90
64226;DHT22;50545;56.064;26.178;2023-03-13T01:16:25;-4.90;99.90
64226;DHT22;50545;56.064;26.178;2023-03-13T01:18:54;-4.90;99.90
64226;DHT22;50545;56.064;26.178;2023-03-13T01:21:22;-4.90;99.90
64226;DHT22;50545;56.064;26.178;2023-03-13T01:23:51;-4.90;99.90
64226;DHT22;50545;56.064;26.178;2023-03-13T01:26:20;-5.00;99.90
64226;DHT22;50545;56.064;26.178;2023-03-13T01:28:48;-5.00;99.90
64226;DHT22;50545;56.064;26.178;2023-03-13T01:31:18;-5.10;99.90
64226;DHT22;50545;56.064;26.178;2023-03-13T01:33:47;-5.00;99.90
64226;DHT22;50545;56.064;26.178;2023-03-13T01:36:15;-5.10;99.90
64226;DHT22;50545;56.064;26.178;2023-03-13T01:38:46;-5.10;99.90
64226;DHT22;50545;56.064;26.178;2023-03-13T01:41:14;-5.10;99.90
64226;DHT22;50545;56.064;26.178;2023-03-13T01:43:42;-5.10;99.90
64226;DHT22;50545;56.064;26.178;2023-03-13T01:46:14;-5.10;99.90
64226;DHT22;50545;56.064;26.178;2023-03-13T01:49:11;-5.10;99.90
64226;DHT22;50545;56.064;26.178;2023-03-13T01:59:29;-5.20;99.90
64226;DHT22;50545;56.064;26.178;2023-03-13T02:01:59;-5.20;99.90
64226;DHT22;50545;56.064;26.178;2023-03-13T02:04:31;-5.20;99.90
64226;DHT22;50545;56.064;26.178;2023-03-13T02:07:03;-5.20;99.90
64226;DHT22;50545;56.064;26.178;2023-03-13T02:09:32;-5.20;99.90
64226;DHT22;50545;56.064;26.178;2023-03-13T02:12:07;-5.30;99.90
64226;DHT22;50545;56.064;26.178;2023-03-13T02:14:37;-5.30;99.90
64226;DHT22;50545;56.064;26.178;2023-03-13T02:17:06;-5.40;99.90
64226;DHT22;50545;56.064;26.178;2023-03-13T02:19:48;-5.40;99.90
64226;DHT22;50545;56.064;26.178;2023-03-13T02:27:34;-5.40;99.90
64226;DHT22;50545;56.064;26.178;2023-03-13T02:30:02;-5.40;99.90
64226;DHT22;50545;56.064;26.178;2023-03-13T02:32:30;-5.50;99.90
64226;DHT22;50545;56.064;26.178;2023-03-13T02:35:03;-5.40;99.90
64226;DHT22;50545;56.064;26.178;2023-03-13T02:37:32;-5.50;99.90
64226;DHT22;50545;56.064;26.178;2023-03-13T02:40:05;-5.40;99.90
64226;DHT22;50545;56.064;26.178;2023-03-13T02:42:37;-5.40;99.90
64226;DHT22;50545;56.064;26.178;2023-03-13T02:45:05;-5.40;99.90
64226;DHT22;50545;56.064;26.178;2023-03-13T02:47:32;-5.40;99.90
64226;DHT22;50545;56.064;26.178;2023-03-13T02:49:59;-5.40;99.90
64226;DHT22;50545;56.064;26.178;2023-03-13T02:52:29;-5.30;99.90
64226;DHT22;50545;56.064;26.178;2023-03-13T02:55:00;-5.30;99.90
64226;DHT22;50545;56.064;26.178;2023-03-13T02:57:28;-5.40;99.90
64226;DHT22;50545;56.064;26.178;2023-03-13T02:59:56;-5.40;99.90
64226;DHT22;50545;56.064;26.178;2023-03-13T03:02:23;-5.40;99.90
64226;DHT22;50545;56.064;26.178;2023-03-13T03:04:50;-5.40;99.90
64226;DHT22;50545;56.064;26.178;2023-03-13T03:07:18;-5.40;99.90
64226;DHT22;50545;56.064;26.178;2023-03-13T03:09:45;-5.40;99.90
64226;DHT22;50545;56.064;26.178;2023-03-13T03:12:12;-5.40;99.90
64226;DHT22;50545;56.064;26.178;2023-03-13T03:14:39;-5.40;99.90
64226;DHT22;50545;56.064;26.178;2023-03-13T03:17:06;-5.40;99.90
64226;DHT22;50545;56.064;26.178;2023-03-13T03:19:34;-5.40;99.90
64226;DHT22;50545;56.064;26.178;2023-03-13T03:22:01;-5.50;99.90
64226;DHT22;50545;56.064;26.178;2023-03-13T03:24:28;-5.50;99.90
64226;DHT22;50545;56.064;26.178;2023-03-13T03:26:55;-5.50;99.90
64226;DHT22;50545;56.064;26.178;2023-03-13T03:29:22;-5.60;99.90
64226;DHT22;50545;56.064;26.178;2023-03-13T03:31:50;-5.60;99.90
64226;DHT22;50545;56.064;26.178;2023-03-13T03:34:17;-5.60;99.90
64226;DHT22;50545;56.064;26.178;2023-03-13T03:36:44;-5.70;99.90
64226;DHT22;50545;56.064;26.178;2023-03-13T03:39:12;-5.70;99.90
64226;DHT22;50545;56.064;26.178;2023-03-13T03:41:39;-5.70;99.90
64226;DHT22;50545;56.064;26.178;2023-03-13T03:44:06;-5.70;99.90
64226;DHT22;50545;56.064;26.178;2023-03-13T03:46:33;-5.80;99.90
64226;DHT22;50545;56.064;26.178;2023-03-13T03:49:01;-5.80;99.90
64226;DHT22;50545;56.064;26.178;2023-03-13T03:51:28;-5.80;99.90
64226;DHT22;50545;56.064;26.178;2023-03-13T03:53:55;-5.90;99.90
64226;DHT22;50545;56.064;26.178;2023-03-13T03:56:22;-5.90;99.90
64226;DHT22;50545;56.064;26.178;2023-03-13T03:58:49;-6.00;99.90
64226;DHT22;50545;56.064;26.178;2023-03-13T04:01:17;-6.00;99.90
64226;DHT22;50545;56.064;26.178;2023-03-13T04:03:44;-6.10;99.90
64226;DHT22;50545;56.064;26.178;2023-03-13T04:06:11;-6.10;99.90
64226;DHT22;50545;56.064;26.178;2023-03-13T04:08:38;-6.10;99.90
64226;DHT22;50545;56.064;26.178;2023-03-13T04:11:05;-6.10;99.90
64226;DHT22;50545;56.064;26.178;2023-03-13T04:13:33;-6.10;99.90
64226;DHT22;50545;56.064;26.178;2023-03-13T04:16:06;-6.10;99.90
64226;DHT22;50545;56.064;26.178;2023-03-13T04:18:33;-6.10;99.90
64226;DHT22;50545;56.064;26.178;2023-03-13T04:21:01;-6.10;99.90
64226;DHT22;50545;56.064;26.178;2023-03-13T04:23:28;-6.10;99.90
64226;DHT22;50545;56.064;26.178;2023-03-13T04:25:56;-6.10;99.90
64226;DHT22;50545;56.064;26.178;2023-03-13T04:28:23;-6.10;99.90
64226;DHT22;50545;56.064;26.178;2023-03-13T04:30:50;-6.10;99.90
64226;DHT22;50545;56.064;26.178;2023-03-13T04:33:18;-6.10;99.90
64226;DHT22;50545;56.064;26.178;2023-03-13T04:35:45;-6.10;99.90
64226;DHT22;50545;56.064;26.178;2023-03-13T04:38:12;-6.10;99.90
64226;DHT22;50545;56.064;26.178;2023-03-13T04:40:40;-6.10;99.90
64226;DHT22;50545;56.064;26.178;2023-03-13T04:43:09;-6.10;99.90
64226;DHT22;50545;56.064;26.178;2023-03-13T04:45:36;-6.10;99.90
64226;DHT22;50545;56.064;26.178;2023-03-13T04:48:04;-6.10;99.90
64226;DHT22;50545;56.064;26.178;2023-03-13T04:50:31;-6.10;99.90
64226;DHT22;50545;56.064;26.178;2023-03-13T04:52:58;-6.10;99.90
64226;DHT22;50545;56.064;26.178;2023-03-13T04:55:25;-6.20;99.90
64226;DHT22;50545;56.064;26.178;2023-03-13T04:57:53;-6.10;99.90
64226;DHT22;50545;56.064;26.178;2023-03-13T05:00:20;-6.10;99.90
64226;DHT22;50545;56.064;26.178;2023-03-13T05:02:47;-6.10;99.90
64226;DHT22;50545;56.064;26.178;2023-03-13T05:05:14;-6.00;99.90
64226;DHT22;50545;56.064;26.178;2023-03-13T05:07:42;-6.00;99.90
64226;DHT22;50545;56.064;26.178;2023-03-13T05:10:09;-5.90;99.90
64226;DHT22;50545;56.064;26.178;2023-03-13T05:12:36;-5.80;99.90
64226;DHT22;50545;56.064;26.178;2023-03-13T05:15:04;-5.80;99.90
64226;DHT22;50545;56.064;26.178;2023-03-13T05:17:31;-5.80;99.90
64226;DHT22;50545;56.064;26.178;2023-03-13T05:19:58;-5.80;99.90
64226;DHT22;50545;56.064;26.178;2023-03-13T05:22:25;-5.70;99.90
64226;DHT22;50545;56.064;26.178;2023-03-13T05:24:52;-5.60;99.90
64226;DHT22;50545;56.064;26.178;2023-03-13T05:27:20;-5.60;99.90
64226;DHT22;50545;56.064;26.178;2023-03-13T05:29:47;-5.60;99.90
64226;DHT22;50545;56.064;26.178;2023-03-13T05:32:14;-5.60;99.90
64226;DHT22;50545;56.064;26.178;2023-03-13T05:34:41;-5.50;99.90
64226;DHT22;50545;56.064;26.178;2023-03-13T05:37:09;-5.50;99.90
64226;DHT22;50545;56.064;26.178;2023-03-13T05:39:36;-5.40;99.90
64226;DHT22;50545;56.064;26.178;2023-03-13T05:42:03;-5.40;99.90
64226;DHT22;50545;56.064;26.178;2023-03-13T05:44:30;-5.30;99.90
64226;DHT22;50545;56.064;26.178;2023-03-13T05:46:58;-5.30;99.90
64226;DHT22;50545;56.064;26.178;2023-03-13T05:49:25;-5.20;99.90
64226;DHT22;50545;56.064;26.178;2023-03-13T05:51:52;-5.20;99.90
64226;DHT22;50545;56.064;26.178;2023-03-13T05:54:19;-5.10;99.90
64226;DHT22;50545;56.064;26.178;2023-03-13T05:56:46;-5.10;99.90
64226;DHT22;50545;56.064;26.178;2023-03-13T05:59:16;-5.00;99.90
64226;DHT22;50545;56.064;26.178;2023-03-13T06:01:43;-5.00;99.90
64226;DHT22;50545;56.064;26.178;2023-03-13T06:04:10;-4.90;99.90
64226;DHT22;50545;56.064;26.178;2023-03-13T06:06:38;-4.90;99.90
64226;DHT22;50545;56.064;26.178;2023-03-13T06:09:05;-4.80;99.90
64226;DHT22;50545;56.064;26.178;2023-03-13T06:11:32;-4.80;99.90
64226;DHT22;50545;56.064;26.178;2023-03-13T06:13:59;-4.70;99.90
64226;DHT22;50545;56.064;26.178;2023-03-13T06:16:27;-4.60;99.90
64226;DHT22;50545;56.064;26.178;2023-03-13T06:18:54;-4.50;99.90
64226;DHT22;50545;56.064;26.178;2023-03-13T06:21:21;-4.40;99.90
64226;DHT22;50545;56.064;26.178;2023-03-13T06:23:48;-4.40;99.90
64226;DHT22;50545;56.064;26.178;2023-03-13T06:26:15;-4.30;99.90
64226;DHT22;50545;56.064;26.178;2023-03-13T06:28:42;-4.20;99.90
64226;DHT22;50545;56.064;26.178;2023-03-13T06:31:10;-4.20;99.90
64226;DHT22;50545;56.064;26.178;2023-03-13T06:33:38;-4.10;99.90
64226;DHT22;50545;56.064;26.178;2023-03-13T06:36:05;-4.00;99.90
64226;DHT22;50545;56.064;26.178;2023-03-13T06:38:33;-3.90;99.90
64226;DHT22;50545;56.064;26.178;2023-03-13T06:41:00;-3.80;99.90
64226;DHT22;50545;56.064;26.178;2023-03-13T06:43:27;-3.80;99.90
64226;DHT22;50545;56.064;26.178;2023-03-13T06:45:55;-3.70;99.90
64226;DHT22;50545;56.064;26.178;2023-03-13T06:48:22;-3.60;99.90
64226;DHT22;50545;56.064;26.178;2023-03-13T06:50:49;-3.50;99.90
64226;DHT22;50545;56.064;26.178;2023-03-13T06:53:18;-3.40;99.90
64226;DHT22;50545;56.064;26.178;2023-03-13T06:55:46;-3.40;99.90
64226;DHT22;50545;56.064;26.178;2023-03-13T06:58:15;-3.30;99.90
64226;DHT22;50545;56.064;26.178;2023-03-13T07:00:59;-3.20;99.90
64226;DHT22;50545;56.064;26.178;2023-03-13T07:03:26;-3.10;99.90
64226;DHT22;50545;56.064;26.178;2023-03-13T07:05:58;-2.90;99.90
64226;DHT22;50545;56.064;26.178;2023-03-13T07:08:25;-2.80;99.90
64226;DHT22;50545;56.064;26.178;2023-03-13T07:10:57;-2.70;99.90
64226;DHT22;50545;56.064;26.178;2023-03-13T07:13:24;-2.60;99.90
64226;DHT22;50545;56.064;26.178;2023-03-13T07:15:52;-2.50;99.90
64226;DHT22;50545;56.064;26.178;2023-03-13T07:18:20;-2.40;99.90
64226;DHT22;50545;56.064;26.178;2023-03-13T07:21:00;-2.30;99.90
64226;DHT22;50545;56.064;26.178;2023-03-13T07:23:31;-2.30;99.90
64226;DHT22;50545;56.064;26.178;2023-03-13T07:26:01;-2.20;99.90
64226;DHT22;50545;56.064;26.178;2023-03-13T07:28:29;-2.10;99.90
64226;DHT22;50545;56.064;26.178;2023-03-13T07:31:15;-2.00;99.80
64226;DHT22;50545;56.064;26.178;2023-03-13T07:33:43;-1.90;99.40
64226;DHT22;50545;56.064;26.178;2023-03-13T07:36:14;-1.80;99.80
64226;DHT22;50545;56.064;26.178;2023-03-13T07:38:42;-1.70;98.80
64226;DHT22;50545;56.064;26.178;2023-03-13T07:41:11;-1.60;98.80
64226;DHT22;50545;56.064;26.178;2023-03-13T07:43:42;-1.50;98.30
64226;DHT22;50545;56.064;26.178;2023-03-13T07:46:11;-1.30;98.20
64226;DHT22;50545;56.064;26.178;2023-03-13T07:48:41;-1.20;96.80
64226;DHT22;50545;56.064;26.178;2023-03-13T07:51:17;-1.10;96.20
64226;DHT22;50545;56.064;26.178;2023-03-13T07:53:49;-1.10;96.30
64226;DHT22;50545;56.064;26.178;2023-03-13T07:56:19;-1.10;96.40
64226;DHT22;50545;56.064;26.178;2023-03-13T07:58:47;-1.00;96.50
64226;DHT22;50545;56.064;26.178;2023-03-13T08:01:19;-0.90;95.70
64226;DHT22;50545;56.064;26.178;2023-03-13T08:03:53;-0.80;95.10
64226;DHT22;50545;56.064;26.178;2023-03-13T08:06:23;-0.70;94.80
64226;DHT22;50545;56.064;26.178;2023-03-13T08:08:51;-0.60;94.90
64226;DHT22;50545;56.064;26.178;2023-03-13T08:11:21;-0.60;93.90
64226;DHT22;50545;56.064;26.178;2023-03-13T08:13:51;-0.60;94.20
64226;DHT22;50545;56.064;26.178;2023-03-13T08:16:21;-0.50;93.80
64226;DHT22;50545;56.064;26.178;2023-03-13T08:18:52;-0.40;94.00
64226;DHT22;50545;56.064;26.178;2023-03-13T08:21:20;-0.30;92.10
64226;DHT22;50545;56.064;26.178;2023-03-13T08:23:47;-0.20;91.70
64226;DHT22;50545;56.064;26.178;2023-03-13T08:26:17;-0.10;90.80
64226;DHT22;50545;56.064;26.178;2023-03-13T08:28:46;-0.10;91.20
64226;DHT22;50545;56.064;26.178;2023-03-13T08:31:19;-0.10;90.80
64226;DHT22;50545;56.064;26.178;2023-03-13T08:33:47;-0.10;91.20
64226;DHT22;50545;56.064;26.178;2023-03-13T08:38:46;0.10;90.60
64226;DHT22;50545;56.064;26.178;2023-03-13T08:41:18;0.30;90.20
64226;DHT22;50545;56.064;26.178;2023-03-13T08:43:46;0.50;86.70
64226;DHT22;50545;56.064;26.178;2023-03-13T08:46:14;0.60;84.80
64226;DHT22;50545;56.064;26.178;2023-03-13T08:48:51;0.70;85.10
64226;DHT22;50545;56.064;26.178;2023-03-13T08:51:22;0.70;84.50
64226;DHT22;50545;56.064;26.178;2023-03-13T08:53:50;0.90;82.40
64226;DHT22;50545;56.064;26.178;2023-03-13T08:56:20;0.90;82.20
64226;DHT22;50545;56.064;26.178;2023-03-13T08:58:52;0.90;80.10
64226;DHT22;50545;56.064;26.178;2023-03-13T09:01:21;0.90;79.00
64226;DHT22;50545;56.064;26.178;2023-03-13T09:03:49;0.80;78.10
64226;DHT22;50545;56.064;26.178;2023-03-13T09:06:16;0.80;78.00
64226;DHT22;50545;56.064;26.178;2023-03-13T09:08:44;0.90;81.20
64226;DHT22;50545;56.064;26.178;2023-03-13T09:11:14;1.00;77.30
64226;DHT22;50545;56.064;26.178;2023-03-13T09:13:43;1.00;76.30
64226;DHT22;50545;56.064;26.178;2023-03-13T09:16:13;1.10;73.90
64226;DHT22;50545;56.064;26.178;2023-03-13T09:18:40;1.20;75.30
64226;DHT22;50545;56.064;26.178;2023-03-13T09:21:11;1.30;75.90
64226;DHT22;50545;56.064;26.178;2023-03-13T09:23:38;1.60;77.30
64226;DHT22;50545;56.064;26.178;2023-03-13T09:26:05;1.90;73.70
64226;DHT22;50545;56.064;26.178;2023-03-13T09:28:33;2.20;71.00
64226;DHT22;50545;56.064;26.178;2023-03-13T09:33:35;2.50;71.80
64226;DHT22;50545;56.064;26.178;2023-03-13T09:36:03;2.50;66.80
64226;DHT22;50545;56.064;26.178;2023-03-13T09:38:30;2.50;64.60
64226;DHT22;50545;56.064;26.178;2023-03-13T09:43:50;2.60;67.40
64226;DHT22;50545;56.064;26.178;2023-03-13T09:46:48;2.80;65.80
64226;DHT22;50545;56.064;26.178;2023-03-13T09:49:44;3.00;65.40
64226;DHT22;50545;56.064;26.178;2023-03-13T09:54:45;3.20;66.60
64226;DHT22;50545;56.064;26.178;2023-03-13T09:57:33;3.40;63.30
64226;DHT22;50545;56.064;26.178;2023-03-13T10:00:23;3.40;61.00
64226;DHT22;50545;56.064;26.178;2023-03-13T10:02:56;3.30;64.00
64226;DHT22;50545;56.064;26.178;2023-03-13T10:05:26;3.40;62.10
64226;DHT22;50545;56.064;26.178;2023-03-13T10:08:08;3.60;63.30
64226;DHT22;50545;56.064;26.178;2023-03-13T10:13:15;4.10;59.50
64226;DHT22;50545;56.064;26.178;2023-03-13T10:15:58;4.50;64.50
64226;DHT22;50545;56.064;26.178;2023-03-13T10:18:27;4.90;58.50
64226;DHT22;50545;56.064;26.178;2023-03-13T10:20:59;4.80;57.90
64226;DHT22;50545;56.064;26.178;2023-03-13T10:23:50;4.80;59.20
64226;DHT22;50545;56.064;26.178;2023-03-13T10:26:30;4.30;57.60
64226;DHT22;50545;56.064;26.178;2023-03-13T10:29:23;4.20;62.20
64226;DHT22;50545;56.064;26.178;2023-03-13T10:32:05;4.40;63.50
64226;DHT22;50545;56.064;26.178;2023-03-13T10:34:57;4.60;60.90
64226;DHT22;50545;56.064;26.178;2023-03-13T10:37:40;4.60;61.30
64226;DHT22;50545;56.064;26.178;2023-03-13T10:40:20;4.60;60.40
64226;DHT22;50545;56.064;26.178;2023-03-13T10:42:51;4.60;62.20
64226;DHT22;50545;56.064;26.178;2023-03-13T10:45:20;4.90;60.70
64226;DHT22;50545;56.064;26.178;2023-03-13T10:48:02;5.10;59.20
64226;DHT22;50545;56.064;26.178;2023-03-13T10:50:33;4.80;59.80
64226;DHT22;50545;56.064;26.178;2023-03-13T10:53:21;4.90;62.20
64226;DHT22;50545;56.064;26.178;2023-03-13T10:55:51;4.90;62.50
64226;DHT22;50545;56.064;26.178;2023-03-13T10:58:28;5.00;61.20
64226;DHT22;50545;56.064;26.178;2023-03-13T11:03:44;5.20;60.50
64226;DHT22;50545;56.064;26.178;2023-03-13T11:06:25;5.40;60.30
64226;DHT22;50545;56.064;26.178;2023-03-13T11:09:14;5.40;60.40
64226;DHT22;50545;56.064;26.178;2023-03-13T11:11:52;5.50;60.40
64226;DHT22;50545;56.064;26.178;2023-03-13T11:14:23;5.40;60.10
64226;DHT22;50545;56.064;26.178;2023-03-13T11:17:01;5.40;61.80
64226;DHT22;50545;56.064;26.178;2023-03-13T11:19:59;5.40;62.80
64226;DHT22;50545;56.064;26.178;2023-03-13T11:31:13;5.70;61.40
64226;DHT22;50545;56.064;26.178;2023-03-13T11:37:14;5.60;60.70
64226;DHT22;50545;56.064;26.178;2023-03-13T11:47:29;5.50;62.10
64226;DHT22;50545;56.064;26.178;2023-03-13T12:00:58;5.30;63.20
64226;DHT22;50545;56.064;26.178;2023-03-13T12:03:51;5.20;64.00
64226;DHT22;50545;56.064;26.178;2023-03-13T12:09:28;5.00;64.10
64226;DHT22;50545;56.064;26.178;2023-03-13T12:14:59;5.00;66.60
64226;DHT22;50545;56.064;26.178;2023-03-13T12:17:40;4.90;63.90
64226;DHT22;50545;56.064;26.178;2023-03-13T12:20:37;4.80;65.60
64226;DHT22;50545;56.064;26.178;2023-03-13T12:23:19;4.70;65.50
64226;DHT22;50545;56.064;26.178;2023-03-13T12:25:50;4.50;64.70
64226;DHT22;50545;56.064;26.178;2023-03-13T12:28:42;4.50;68.60
64226;DHT22;50545;56.064;26.178;2023-03-13T12:34:32;4.70;67.10
64226;DHT22;50545;56.064;26.178;2023-03-13T12:36:43;4.80;66.40
64226;DHT22;50545;56.064;26.178;2023-03-13T12:42:22;5.00;65.80
64226;DHT22;50545;56.064;26.178;2023-03-13T12:44:56;5.00;65.40
64226;DHT22;50545;56.064;26.178;2023-03-13T12:58:54;4.80;65.00
64226;DHT22;50545;56.064;26.178;2023-03-13T13:01:29;4.90;67.50
64226;DHT22;50545;56.064;26.178;2023-03-13T13:04:27;4.90;66.40
64226;DHT22;50545;56.064;26.178;2023-03-13T13:06:58;4.80;67.00
64226;DHT22;50545;56.064;26.178;2023-03-13T13:09:33;4.70;66.30
64226;DHT22;50545;56.064;26.178;2023-03-13T13:12:02;4.70;69.00
64226;DHT22;50545;56.064;26.178;2023-03-13T13:24:58;4.40;70.10
64226;DHT22;50545;56.064;26.178;2023-03-13T13:32:34;4.30;73.40
64226;DHT22;50545;56.064;26.178;2023-03-13T13:37:46;4.30;73.40
64226;DHT22;50545;56.064;26.178;2023-03-13T13:42:47;4.30;73.80
64226;DHT22;50545;56.064;26.178;2023-03-13T13:47:47;4.20;75.50
64226;DHT22;50545;56.064;26.178;2023-03-13T13:50:20;4.10;77.30
64226;DHT22;50545;56.064;26.178;2023-03-13T13:52:49;4.00;78.00
64226;DHT22;50545;56.064;26.178;2023-03-13T13:58:18;3.70;85.10
64226;DHT22;50545;56.064;26.178;2023-03-13T14:01:00;3.60;86.50
64226;DHT22;50545;56.064;26.178;2023-03-13T14:03:31;3.50;90.20
64226;DHT22;50545;56.064;26.178;2023-03-13T14:06:20;3.50;90.20
64226;DHT22;50545;56.064;26.178;2023-03-13T14:08:51;3.50;90.90
64226;DHT22;50545;56.064;26.178;2023-03-13T14:11:36;3.30;92.80
64226;DHT22;50545;56.064;26.178;2023-03-13T14:14:22;3.10;94.90
64226;DHT22;50545;56.064;26.178;2023-03-13T14:16:54;2.90;95.90
64226;DHT22;50545;56.064;26.178;2023-03-13T14:19:31;2.80;97.00
64226;DHT22;50545;56.064;26.178;2023-03-13T14:22:05;2.70;97.80
64226;DHT22;50545;56.064;26.178;2023-03-13T14:24:33;2.70;97.70
64226;DHT22;50545;56.064;26.178;2023-03-13T14:27:00;2.70;98.30
64226;DHT22;50545;56.064;26.178;2023-03-13T14:29:28;2.60;99.00
64226;DHT22;50545;56.064;26.178;2023-03-13T14:31:57;2.60;99.70
64226;DHT22;50545;56.064;26.178;2023-03-13T14:34:26;2.50;99.90
64226;DHT22;50545;56.064;26.178;2023-03-13T14:36:59;2.40;99.90
64226;DHT22;50545;56.064;26.178;2023-03-13T14:39:44;2.40;99.90
64226;DHT22;50545;56.064;26.178;2023-03-13T14:42:13;2.30;99.90
64226;DHT22;50545;56.064;26.178;2023-03-13T14:44:43;2.20;99.90
64226;DHT22;50545;56.064;26.178;2023-03-13T14:47:27;2.20;99.90
64226;DHT22;50545;56.064;26.178;2023-03-13T14:50:08;2.10;99.90
64226;DHT22;50545;56.064;26.178;2023-03-13T14:52:37;2.20;99.90
64226;DHT22;50545;56.064;26.178;2023-03-13T14:58:30;2.10;99.90
64226;DHT22;50545;56.064;26.178;2023-03-13T15:00:50;2.10;99.90
64226;DHT22;50545;56.064;26.178;2023-03-13T15:03:18;2.10;99.90
64226;DHT22;50545;56.064;26.178;2023-03-13T15:08:38;2.00;99.90
64226;DHT22;50545;56.064;26.178;2023-03-13T15:13:47;1.90;99.90
64226;DHT22;50545;56.064;26.178;2023-03-13T15:16:18;1.90;99.90
64226;DHT22;50545;56.064;26.178;2023-03-13T15:18:49;1.90;99.90
64226;DHT22;50545;56.064;26.178;2023-03-13T15:21:27;1.90;99.90
64226;DHT22;50545;56.064;26.178;2023-03-13T15:24:15;1.90;99.90
64226;DHT22;50545;56.064;26.178;2023-03-13T15:26:42;1.90;99.90
64226;DHT22;50545;56.064;26.178;2023-03-13T15:29:10;1.90;99.90
64226;DHT22;50545;56.064;26.178;2023-03-13T15:31:37;1.80;99.90
64226;DHT22;50545;56.064;26.178;2023-03-13T15:34:09;1.80;99.90
64226;DHT22;50545;56.064;26.178;2023-03-13T15:36:38;1.70;99.90
64226;DHT22;50545;56.064;26.178;2023-03-13T15:39:18;1.70;99.90
64226;DHT22;50545;56.064;26.178;2023-03-13T15:41:46;1.70;99.90
64226;DHT22;50545;56.064;26.178;2023-03-13T15:44:13;1.60;99.90
64226;DHT22;50545;56.064;26.178;2023-03-13T15:46:41;1.60;99.90
64226;DHT22;50545;56.064;26.178;2023-03-13T15:49:10;1.50;99.90
64226;DHT22;50545;56.064;26.178;2023-03-13T15:51:38;1.50;99.90
64226;DHT22;50545;56.064;26.178;2023-03-13T15:54:05;1.50;99.90
64226;DHT22;50545;56.064;26.178;2023-03-13T15:56:35;1.40;99.90
64226;DHT22;50545;56.064;26.178;2023-03-13T15:59:10;1.40;99.90
64226;DHT22;50545;56.064;26.178;2023-03-13T16:01:38;1.40;99.90
64226;DHT22;50545;56.064;26.178;2023-03-13T16:04:06;1.30;99.90
64226;DHT22;50545;56.064;26.178;2023-03-13T16:06:33;1.30;99.90
64226;DHT22;50545;56.064;26.178;2023-03-13T16:09:03;1.30;99.90
64226;DHT22;50545;56.064;26.178;2023-03-13T16:11:31;1.30;99.90
64226;DHT22;50545;56.064;26.178;2023-03-13T16:13:58;1.20;99.90
64226;DHT22;50545;56.064;26.178;2023-03-13T16:16:31;1.20;99.90
64226;DHT22;50545;56.064;26.178;2023-03-13T16:19:03;1.20;99.90
64226;DHT22;50545;56.064;26.178;2023-03-13T16:21:33;1.20;99.90
64226;DHT22;50545;56.064;26.178;2023-03-13T16:24:01;1.10;99.90
64226;DHT22;50545;56.064;26.178;2023-03-13T16:26:30;1.10;99.90
64226;DHT22;50545;56.064;26.178;2023-03-13T16:28:58;1.10;99.90
64226;DHT22;50545;56.064;26.178;2023-03-13T16:31:28;1.10;99.90
64226;DHT22;50545;56.064;26.178;2023-03-13T16:33:56;1.00;99.90
64226;DHT22;50545;56.064;26.178;2023-03-13T16:36:27;1.00;99.90
64226;DHT22;50545;56.064;26.178;2023-03-13T16:38:57;1.00;99.90
64226;DHT22;50545;56.064;26.178;2023-03-13T16:41:25;1.00;99.90
64226;DHT22;50545;56.064;26.178;2023-03-13T16:43:54;0.90;99.90
64226;DHT22;50545;56.064;26.178;2023-03-13T16:46:24;0.90;99.90
64226;DHT22;50545;56.064;26.178;2023-03-13T16:48:53;0.90;99.90
64226;DHT22;50545;56.064;26.178;2023-03-13T16:51:25;0.90;99.90
64226;DHT22;50545;56.064;26.178;2023-03-13T16:53:54;0.90;99.90
64226;DHT22;50545;56.064;26.178;2023-03-13T16:56:28;0.90;99.90
64226;DHT22;50545;56.064;26.178;2023-03-13T16:58:56;0.90;99.90
64226;DHT22;50545;56.064;26.178;2023-03-13T17:01:24;0.90;99.90
64226;DHT22;50545;56.064;26.178;2023-03-13T17:03:52;0.80;99.90
64226;DHT22;50545;56.064;26.178;2023-03-13T17:06:25;0.90;99.90
64226;DHT22;50545;56.064;26.178;2023-03-13T17:08:54;0.90;99.90
64226;DHT22;50545;56.064;26.178;2023-03-13T17:11:22;0.90;99.90
64226;DHT22;50545;56.064;26.178;2023-03-13T17:13:51;0.90;99.90
64226;DHT22;50545;56.064;26.178;2023-03-13T17:16:28;0.90;99.90
64226;DHT22;50545;56.064;26.178;2023-03-13T17:18:55;0.90;99.90
64226;DHT22;50545;56.064;26.178;2023-03-13T17:21:24;0.90;99.90
64226;DHT22;50545;56.064;26.178;2023-03-13T17:23:52;0.90;99.90
64226;DHT22;50545;56.064;26.178;2023-03-13T17:26:22;0.90;99.90
64226;DHT22;50545;56.064;26.178;2023-03-13T17:28:51;0.90;99.90
64226;DHT22;50545;56.064;26.178;2023-03-13T17:31:19;1.00;99.90
64226;DHT22;50545;56.064;26.178;2023-03-13T17:33:46;1.00;99.90
64226;DHT22;50545;56.064;26.178;2023-03-13T17:36:22;1.00;99.90
64226;DHT22;50545;56.064;26.178;2023-03-13T17:38:51;1.00;99.90
64226;DHT22;50545;56.064;26.178;2023-03-13T17:41:22;1.00;99.90
64226;DHT22;50545;56.064;26.178;2023-03-13T17:43:49;1.00;99.90
64226;DHT22;50545;56.064;26.178;2023-03-13T17:48:47;1.00;99.90
64226;DHT22;50545;56.064;26.178;2023-03-13T17:51:17;1.00;99.90